createdAt,value
2022-10-23T00:01:31.609Z,15.10
2022-10-23T00:04:04.759Z,15.10
2022-10-23T00:06:32.974Z,15.10
2022-10-23T00:08:59.966Z,15.00
2022-10-23T00:11:29.645Z,15.00
2022-10-23T00:13:59.860Z,15.00
2022-10-23T00:16:29.791Z,15.00
2022-10-23T00:18:56.772Z,14.90
2022-10-23T00:21:24.025Z,15.00
2022-10-23T00:23:53.702Z,15.00
2022-10-23T00:26:22.748Z,15.00
2022-10-23T00:28:52.065Z,15.00
2022-10-23T00:31:19.895Z,15.00
2022-10-23T00:33:47.133Z,15.00
2022-10-23T00:36:18.264Z,15.00
2022-10-23T00:38:50.302Z,15.00
2022-10-23T00:41:23.586Z,15.00
2022-10-23T00:43:58.134Z,15.00
2022-10-23T00:46:27.693Z,15.00
2022-10-23T00:48:54.545Z,15.00
2022-10-23T00:51:21.666Z,15.00
2022-10-23T00:54:12.649Z,15.00
2022-10-23T00:56:44.626Z,15.00
2022-10-23T00:59:17.199Z,15.00
2022-10-23T01:01:44.177Z,15.00
2022-10-23T01:04:11.233Z,15.00
2022-10-23T01:06:44.733Z,15.00
2022-10-23T01:09:31.060Z,15.10
2022-10-23T01:12:21.829Z,15.00
2022-10-23T01:15:00.449Z,15.00
2022-10-23T01:17:33.002Z,15.00
2022-10-23T01:20:38.978Z,15.00
2022-10-23T01:23:12.008Z,15.00
2022-10-23T01:25:59.917Z,14.90
2022-10-23T01:28:33.238Z,14.90
2022-10-23T01:31:04.682Z,14.90
2022-10-23T01:33:39.498Z,14.80
2022-10-23T01:36:10.675Z,14.80
2022-10-23T01:38:40.643Z,14.80
2022-10-23T01:41:09.436Z,14.80
2022-10-23T01:43:53.536Z,14.80
2022-10-23T01:46:25.918Z,14.80
2022-10-23T01:48:55.273Z,14.80
2022-10-23T01:51:27.733Z,14.80
2022-10-23T01:54:05.818Z,14.70
2022-10-23T01:56:37.286Z,14.80
2022-10-23T01:59:10.650Z,14.80
2022-10-23T02:01:41.963Z,14.70
2022-10-23T02:04:12.652Z,14.70
2022-10-23T02:06:41.782Z,14.60
2022-10-23T02:09:09.085Z,14.60
2022-10-23T02:11:46.223Z,14.60
2022-10-23T02:14:27.509Z,14.60
2022-10-23T02:16:59.296Z,14.70
2022-10-23T02:19:29.068Z,14.70
2022-10-23T02:22:04.634Z,14.70
2022-10-23T02:24:34.467Z,14.70
2022-10-23T02:27:12.814Z,14.80
2022-10-23T02:30:05.077Z,14.80
2022-10-23T02:32:34.032Z,14.70
2022-10-23T02:35:01.153Z,14.70
2022-10-23T02:37:28.157Z,14.70
2022-10-23T02:39:55.382Z,14.70
2022-10-23T02:42:34.235Z,14.70
2022-10-23T02:45:09.858Z,14.60
2022-10-23T02:47:39.804Z,14.60
2022-10-23T02:50:46.455Z,14.60
2022-10-23T02:53:37.292Z,14.50
2022-10-23T02:56:26.726Z,14.50
2022-10-23T02:59:19.524Z,14.60
2022-10-23T03:01:57.443Z,14.60
2022-10-23T03:04:26.080Z,14.70
2022-10-23T03:06:53.006Z,14.60
2022-10-23T03:09:19.753Z,14.50
2022-10-23T03:11:46.538Z,14.60
2022-10-23T03:14:14.306Z,14.60
2022-10-23T03:16:41.051Z,14.60
2022-10-23T03:19:07.771Z,14.60
2022-10-23T03:21:34.616Z,14.60
2022-10-23T03:24:01.342Z,14.60
2022-10-23T03:26:28.084Z,14.60
2022-10-23T03:28:57.079Z,14.60
2022-10-23T03:31:23.770Z,14.50
2022-10-23T03:33:50.510Z,14.50
2022-10-23T03:36:17.226Z,14.60
2022-10-23T03:38:46.143Z,14.60
2022-10-23T03:41:12.846Z,14.60
2022-10-23T03:43:39.552Z,14.70
2022-10-23T03:46:12.273Z,14.60
2022-10-23T03:48:43.452Z,14.50
2022-10-23T03:51:10.114Z,14.60
2022-10-23T03:53:39.339Z,14.50
2022-10-23T03:56:06.254Z,14.50
2022-10-23T03:58:32.987Z,14.50
2022-10-23T04:00:59.737Z,14.50
2022-10-23T04:03:26.439Z,14.50
2022-10-23T04:05:53.155Z,14.50
2022-10-23T04:08:20.362Z,14.60
2022-10-23T04:10:47.149Z,14.50
2022-10-23T04:13:16.393Z,14.50
2022-10-23T04:15:51.189Z,14.60
2022-10-23T04:18:20.719Z,14.50
2022-10-23T04:20:50.412Z,14.50
2022-10-23T04:23:17.851Z,14.50
2022-10-23T04:25:44.620Z,14.50
2022-10-23T04:28:11.373Z,14.50
2022-10-23T04:30:38.178Z,14.50
2022-10-23T04:33:04.888Z,14.60
2022-10-23T04:35:31.714Z,14.50
2022-10-23T04:37:58.511Z,14.50
2022-10-23T04:40:25.262Z,14.50
2022-10-23T04:42:51.965Z,14.50
2022-10-23T04:45:18.744Z,14.50
2022-10-23T04:47:45.504Z,14.50
2022-10-23T04:50:17.329Z,14.40
2022-10-23T04:52:46.227Z,14.40
2022-10-23T04:55:15.600Z,14.50
2022-10-23T04:57:42.318Z,14.50
2022-10-23T05:00:15.656Z,14.50
2022-10-23T05:02:42.828Z,14.50
2022-10-23T05:05:12.327Z,14.50
2022-10-23T05:07:40.343Z,14.50
2022-10-23T05:10:09.779Z,14.50
2022-10-23T05:12:36.485Z,14.50
2022-10-23T05:15:05.909Z,14.50
2022-10-23T05:17:40.579Z,14.50
2022-10-23T05:20:14.985Z,14.50
2022-10-23T05:22:50.121Z,14.50
2022-10-23T05:25:17.183Z,14.50
2022-10-23T05:27:46.461Z,14.50
2022-10-23T05:30:13.627Z,14.50
2022-10-23T05:32:45.344Z,14.40
2022-10-23T05:35:19.241Z,14.50
2022-10-23T05:37:48.012Z,14.40
2022-10-23T05:40:14.788Z,14.30
2022-10-23T05:42:41.826Z,14.30
2022-10-23T05:45:09.163Z,14.30
2022-10-23T05:47:36.053Z,14.30
2022-10-23T05:50:03.000Z,14.30
2022-10-23T05:52:29.729Z,14.30
2022-10-23T05:54:56.477Z,14.30
2022-10-23T05:57:23.193Z,14.30
2022-10-23T05:59:49.926Z,14.30
2022-10-23T06:02:16.600Z,14.30
2022-10-23T06:04:43.305Z,14.30
2022-10-23T06:07:09.990Z,14.30
2022-10-23T06:09:39.197Z,14.30
2022-10-23T06:12:06.121Z,14.40
2022-10-23T06:14:32.829Z,14.30
2022-10-23T06:17:01.698Z,14.30
2022-10-23T06:19:33.157Z,14.40
2022-10-23T06:22:04.536Z,14.40
2022-10-23T06:24:33.702Z,14.40
2022-10-23T06:27:00.414Z,14.40
2022-10-23T06:29:27.049Z,14.40
2022-10-23T06:31:53.767Z,14.40
2022-10-23T06:34:20.504Z,14.40
2022-10-23T06:36:49.700Z,14.40
2022-10-23T06:39:16.443Z,14.40
2022-10-23T06:41:44.394Z,14.50
2022-10-23T06:44:13.305Z,14.50
2022-10-23T06:46:40.045Z,14.50
2022-10-23T06:49:06.761Z,14.50
2022-10-23T06:51:33.587Z,14.50
2022-10-23T06:54:00.337Z,14.50
2022-10-23T06:56:29.211Z,14.50
2022-10-23T06:58:56.621Z,14.50
2022-10-23T07:01:25.854Z,14.50
2022-10-23T07:03:52.804Z,14.60
2022-10-23T07:06:19.559Z,14.60
2022-10-23T07:08:46.280Z,14.60
2022-10-23T07:11:13.286Z,14.60
2022-10-23T07:13:44.423Z,14.60
2022-10-23T07:16:20.175Z,14.70
2022-10-23T07:18:48.391Z,14.70
2022-10-23T07:21:15.203Z,14.70
2022-10-23T07:23:41.896Z,14.70
2022-10-23T07:26:15.254Z,14.70
2022-10-23T07:28:46.391Z,14.80
2022-10-23T07:31:15.568Z,14.80
2022-10-23T07:33:42.216Z,14.80
2022-10-23T07:36:10.512Z,14.80
2022-10-23T07:38:37.244Z,14.80
2022-10-23T07:41:05.833Z,14.80
2022-10-23T07:43:35.326Z,14.80
2022-10-23T07:46:02.437Z,14.90
2022-10-23T07:48:29.803Z,14.90
2022-10-23T07:51:08.050Z,14.90
2022-10-23T07:53:35.972Z,14.90
2022-10-23T07:56:10.111Z,14.90
2022-10-23T07:58:39.016Z,15.00
2022-10-23T08:01:15.244Z,15.00
2022-10-23T08:03:42.006Z,15.00
2022-10-23T08:06:08.699Z,15.00
2022-10-23T08:08:35.396Z,15.00
2022-10-23T08:11:02.208Z,15.00
2022-10-23T08:13:28.927Z,15.10
2022-10-23T08:15:56.638Z,15.10
2022-10-23T08:18:23.535Z,15.20
2022-10-23T08:20:52.477Z,15.20
2022-10-23T08:23:19.842Z,15.20
2022-10-23T08:25:47.635Z,15.30
2022-10-23T08:28:15.794Z,15.40
2022-10-23T08:30:42.536Z,15.40
2022-10-23T08:33:15.086Z,15.40
2022-10-23T08:35:41.846Z,15.50
2022-10-23T08:38:08.595Z,15.50
2022-10-23T08:40:38.378Z,15.50
2022-10-23T08:43:11.111Z,15.60
2022-10-23T08:45:40.838Z,15.60
2022-10-23T08:48:25.191Z,15.60
2022-10-23T08:51:06.086Z,15.70
2022-10-23T08:53:39.463Z,15.80
2022-10-23T08:56:21.059Z,15.90
2022-10-23T08:58:55.793Z,15.90
2022-10-23T09:01:46.548Z,15.90
2022-10-23T09:04:15.272Z,15.90
2022-10-23T09:09:58.401Z,16.00
2022-10-23T09:12:29.969Z,16.10
2022-10-23T09:15:18.516Z,16.20
2022-10-23T09:17:46.145Z,16.30
2022-10-23T09:20:22.551Z,16.40
2022-10-23T09:22:56.248Z,16.50
2022-10-23T09:25:29.475Z,16.60
2022-10-23T09:28:01.623Z,16.70
2022-10-23T09:30:40.045Z,16.70
2022-10-23T09:33:16.804Z,16.80
2022-10-23T09:36:00.656Z,16.80
2022-10-23T09:38:29.135Z,16.90
2022-10-23T09:40:56.859Z,16.90
2022-10-23T09:43:25.895Z,17.10
2022-10-23T09:46:01.180Z,17.20
2022-10-23T09:48:30.578Z,17.20
2022-10-23T09:51:04.576Z,17.30
2022-10-23T09:53:31.752Z,17.30
2022-10-23T09:56:03.097Z,17.40
2022-10-23T09:58:51.983Z,17.40
2022-10-23T10:01:24.905Z,17.40
2022-10-23T10:03:54.504Z,17.40
2022-10-23T10:06:30.283Z,17.50
2022-10-23T10:08:59.999Z,17.50
2022-10-23T10:11:27.757Z,17.50
2022-10-23T10:14:04.841Z,17.50
2022-10-23T10:16:49.818Z,17.60
2022-10-23T10:19:31.781Z,17.70
2022-10-23T10:22:10.477Z,17.70
2022-10-23T10:24:46.017Z,17.80
2022-10-23T10:27:35.168Z,17.80
2022-10-23T10:30:20.495Z,17.80
2022-10-23T10:33:02.292Z,17.90
2022-10-23T10:35:44.561Z,17.90
2022-10-23T10:38:23.630Z,17.90
2022-10-23T10:41:11.482Z,17.90
2022-10-23T10:44:06.844Z,17.90
2022-10-23T10:46:35.673Z,17.90
2022-10-23T10:49:10.202Z,17.90
2022-10-23T10:51:49.648Z,17.90
2022-10-23T10:54:43.571Z,17.80
2022-10-23T10:57:39.163Z,17.90
2022-10-23T11:00:13.519Z,17.90
2022-10-23T11:02:57.463Z,17.80
2022-10-23T11:05:37.426Z,17.90
2022-10-23T11:08:15.186Z,17.90
2022-10-23T11:10:46.499Z,17.90
2022-10-23T11:13:25.628Z,17.90
2022-10-23T11:16:05.730Z,17.80
2022-10-23T11:18:33.700Z,17.80
2022-10-23T11:21:12.580Z,17.80
2022-10-23T11:24:11.071Z,17.80
2022-10-23T11:26:37.824Z,17.80
2022-10-23T11:29:04.565Z,17.80
2022-10-23T11:31:43.417Z,17.80
2022-10-23T11:34:40.815Z,17.80
2022-10-23T11:37:09.120Z,17.70
2022-10-23T11:39:39.597Z,17.70
2022-10-23T11:42:06.269Z,17.70
2022-10-23T11:44:45.785Z,17.80
2022-10-23T11:47:40.386Z,18.00
2022-10-23T11:50:09.735Z,18.20
2022-10-23T11:52:45.719Z,18.40
2022-10-23T11:55:28.354Z,18.60
2022-10-23T11:58:07.159Z,18.90
2022-10-23T12:00:38.739Z,19.20
2022-10-23T12:03:06.401Z,19.30
2022-10-23T12:05:37.743Z,19.60
2022-10-23T12:08:08.152Z,19.70
2022-10-23T12:10:43.683Z,19.60
2022-10-23T12:13:30.487Z,19.70
2022-10-23T12:16:00.125Z,19.70
2022-10-23T12:18:30.695Z,19.70
2022-10-23T12:21:04.607Z,19.90
2022-10-23T12:23:33.442Z,19.90
2022-10-23T12:26:17.910Z,19.90
2022-10-23T12:28:53.993Z,19.70
2022-10-23T12:32:08.884Z,19.60
2022-10-23T12:34:54.359Z,19.70
2022-10-23T12:37:58.188Z,19.80
2022-10-23T12:40:29.905Z,19.80
2022-10-23T12:43:01.018Z,19.60
2022-10-23T12:45:37.312Z,19.50
2022-10-23T12:48:04.454Z,19.40
2022-10-23T12:50:34.458Z,19.40
2022-10-23T12:53:16.607Z,19.30
2022-10-23T12:55:55.833Z,19.30
2022-10-23T12:58:30.591Z,19.20
2022-10-23T13:01:01.833Z,19.20
2022-10-23T13:03:33.606Z,19.10
2022-10-23T13:06:04.199Z,19.10
2022-10-23T13:08:42.592Z,19.10
2022-10-23T13:11:18.863Z,19.10
2022-10-23T13:13:49.379Z,19.00
2022-10-23T13:16:23.648Z,19.00
2022-10-23T13:18:56.160Z,19.10
2022-10-23T13:21:28.744Z,19.10
2022-10-23T13:23:58.755Z,19.10
2022-10-23T13:26:37.530Z,19.10
2022-10-23T13:29:17.777Z,19.10
2022-10-23T13:31:47.131Z,19.20
2022-10-23T13:34:26.047Z,19.30
2022-10-23T13:36:57.539Z,19.30
2022-10-23T13:39:27.254Z,19.40
2022-10-23T13:41:54.242Z,19.40
2022-10-23T13:44:23.296Z,19.40
2022-10-23T13:46:52.131Z,19.40
2022-10-23T13:49:21.995Z,19.40
2022-10-23T13:51:54.323Z,19.30
2022-10-23T13:54:24.005Z,19.30
2022-10-23T13:56:52.079Z,19.30
2022-10-23T13:59:19.405Z,19.30
2022-10-23T14:01:47.736Z,19.30
2022-10-23T14:04:18.689Z,19.30
2022-10-23T14:06:47.554Z,19.30
2022-10-23T14:09:19.012Z,19.20
2022-10-23T14:11:45.893Z,19.20
2022-10-23T14:14:12.730Z,19.20
2022-10-23T14:16:41.884Z,19.20
2022-10-23T14:19:10.774Z,19.20
2022-10-23T14:21:39.616Z,19.20
2022-10-23T14:24:06.589Z,19.10
2022-10-23T14:26:34.286Z,19.10
2022-10-23T14:29:07.624Z,19.10
2022-10-23T14:31:37.023Z,19.10
2022-10-23T14:34:03.708Z,19.10
2022-10-23T14:36:38.789Z,19.10
2022-10-23T14:39:19.351Z,19.10
2022-10-23T14:41:46.051Z,19.00
2022-10-23T14:44:13.273Z,18.90
2022-10-23T14:46:40.025Z,19.00
2022-10-23T14:49:09.167Z,19.00
2022-10-23T14:51:36.401Z,18.90
2022-10-23T14:54:04.875Z,18.90
2022-10-23T14:56:34.090Z,18.90
2022-10-23T14:59:04.005Z,18.90
2022-10-23T15:01:45.066Z,18.90
2022-10-23T15:04:14.428Z,18.90
2022-10-23T15:06:41.952Z,18.90
2022-10-23T15:09:08.745Z,18.90
2022-10-23T15:11:37.684Z,18.90
2022-10-23T15:14:07.151Z,18.90
2022-10-23T15:16:41.038Z,18.80
2022-10-23T15:19:12.128Z,18.70
2022-10-23T15:21:44.662Z,18.80
2022-10-23T15:24:11.390Z,18.80
2022-10-23T15:26:38.601Z,18.80
2022-10-23T15:29:05.554Z,18.80
2022-10-23T15:31:37.463Z,18.80
2022-10-23T15:34:16.229Z,18.80
2022-10-23T15:36:44.804Z,18.80
2022-10-23T15:39:13.145Z,18.80
2022-10-23T15:41:43.089Z,18.80
2022-10-23T15:44:13.442Z,18.80
2022-10-23T15:46:40.532Z,18.80
2022-10-23T15:49:08.521Z,18.80
2022-10-23T15:51:36.930Z,18.80
2022-10-23T15:54:05.459Z,18.80
2022-10-23T15:56:32.709Z,18.70
2022-10-23T15:58:59.410Z,18.80
2022-10-23T16:01:26.672Z,18.80
2022-10-23T16:03:55.679Z,18.80
2022-10-23T16:06:22.819Z,18.80
2022-10-23T16:08:49.728Z,18.80
2022-10-23T16:11:23.799Z,18.70
2022-10-23T16:13:50.737Z,18.70
2022-10-23T16:16:19.877Z,18.60
2022-10-23T16:18:47.253Z,18.60
2022-10-23T16:21:25.932Z,18.60
2022-10-23T16:23:54.434Z,18.60
2022-10-23T16:26:22.477Z,18.50
2022-10-23T16:28:56.949Z,18.40
2022-10-23T16:31:24.773Z,18.40
2022-10-23T16:33:52.873Z,18.30
2022-10-23T16:36:20.667Z,18.40
2022-10-23T16:38:50.337Z,18.40
2022-10-23T16:41:17.057Z,18.30
2022-10-23T16:43:45.971Z,18.10
2022-10-23T16:46:20.957Z,17.90
2022-10-23T16:48:48.949Z,17.70
2022-10-23T16:51:18.261Z,17.70
2022-10-23T16:53:45.722Z,17.60
2022-10-23T16:56:15.319Z,17.60
2022-10-23T16:58:42.978Z,17.50
2022-10-23T17:01:12.457Z,17.50
2022-10-23T17:03:45.957Z,17.40
2022-10-23T17:06:14.927Z,17.40
2022-10-23T17:08:42.235Z,17.40
2022-10-23T17:11:26.537Z,17.40
2022-10-23T17:13:58.591Z,17.40
2022-10-23T17:16:31.923Z,17.30
2022-10-23T17:18:58.897Z,17.30
2022-10-23T17:21:25.596Z,17.30
2022-10-23T17:23:52.766Z,17.30
2022-10-23T17:26:21.635Z,17.40
2022-10-23T17:28:48.516Z,17.40
2022-10-23T17:31:16.831Z,17.30
2022-10-23T17:33:44.320Z,17.30
2022-10-23T17:36:12.765Z,17.30
2022-10-23T17:38:41.691Z,17.30
2022-10-23T17:41:08.525Z,17.30
2022-10-23T17:43:35.319Z,17.20
2022-10-23T17:46:04.190Z,17.30
2022-10-23T17:48:30.949Z,17.30
2022-10-23T17:51:10.094Z,17.30
2022-10-23T17:53:38.949Z,17.20
2022-10-23T17:56:08.557Z,17.20
2022-10-23T17:58:35.986Z,17.20
2022-10-23T18:01:11.026Z,17.10
2022-10-23T18:03:41.104Z,17.10
2022-10-23T18:06:08.764Z,17.10
2022-10-23T18:08:36.934Z,17.10
2022-10-23T18:11:05.069Z,17.10
2022-10-23T18:13:35.125Z,17.10
2022-10-23T18:16:06.027Z,17.10
2022-10-23T18:18:33.591Z,17.10
2022-10-23T18:21:02.031Z,17.00
2022-10-23T18:23:29.662Z,17.10
2022-10-23T18:25:57.455Z,17.10
2022-10-23T18:28:24.571Z,17.00
2022-10-23T18:30:53.421Z,17.00
2022-10-23T18:33:23.576Z,17.00
2022-10-23T18:35:52.735Z,16.90
2022-10-23T18:38:21.845Z,17.00
2022-10-23T18:40:56.876Z,16.90
2022-10-23T18:43:42.551Z,16.90
2022-10-23T18:46:14.944Z,16.90
2022-10-23T18:48:43.317Z,16.90
2022-10-23T18:51:21.767Z,16.80
2022-10-23T18:53:51.810Z,16.90
2022-10-23T18:56:22.081Z,16.80
2022-10-23T18:58:54.096Z,16.80
2022-10-23T19:01:21.965Z,16.80
2022-10-23T19:03:51.448Z,16.80
2022-10-23T19:06:19.142Z,16.70
2022-10-23T19:08:49.074Z,16.70
2022-10-23T19:11:17.543Z,16.70
2022-10-23T19:13:44.221Z,16.60
2022-10-23T19:16:13.171Z,16.60
2022-10-23T19:18:44.824Z,16.60
2022-10-23T19:21:12.156Z,16.60
2022-10-23T19:23:41.291Z,16.60
2022-10-23T19:26:11.897Z,16.50
2022-10-23T19:28:42.394Z,16.50
2022-10-23T19:31:10.525Z,16.50
2022-10-23T19:33:38.905Z,16.50
2022-10-23T19:36:08.804Z,16.40
2022-10-23T19:38:36.927Z,16.40
2022-10-23T19:41:03.933Z,16.40
2022-10-23T19:43:30.690Z,16.40
2022-10-23T19:46:00.462Z,16.30
2022-10-23T19:48:27.395Z,16.30
2022-10-23T19:50:54.277Z,16.30
2022-10-23T19:53:21.033Z,16.30
2022-10-23T19:55:50.248Z,16.20
2022-10-23T19:58:16.993Z,16.20
2022-10-23T20:00:43.687Z,16.20
2022-10-23T20:03:10.422Z,16.10
2022-10-23T20:05:37.130Z,16.10
2022-10-23T20:08:03.984Z,16.10
2022-10-23T20:10:30.735Z,16.20
2022-10-23T20:13:18.324Z,16.20
2022-10-23T20:15:44.958Z,16.10
2022-10-23T20:18:11.832Z,16.10
2022-10-23T20:20:42.699Z,16.10
2022-10-23T20:23:09.635Z,16.10
2022-10-23T20:25:37.625Z,16.10
2022-10-23T20:28:04.519Z,16.10
2022-10-23T20:30:31.555Z,16.10
2022-10-23T20:32:58.482Z,16.10
2022-10-23T20:35:25.353Z,16.20
2022-10-23T20:37:53.345Z,16.20
2022-10-23T20:40:20.188Z,16.20
2022-10-23T20:42:46.953Z,16.30
2022-10-23T20:45:14.074Z,16.30
2022-10-23T20:47:53.384Z,16.30
2022-10-23T20:50:21.181Z,16.30
2022-10-23T20:52:48.168Z,16.40
2022-10-23T20:55:16.623Z,16.40
2022-10-23T20:57:44.423Z,16.50
2022-10-23T21:00:20.831Z,16.50
2022-10-23T21:02:50.019Z,16.50
2022-10-23T21:05:19.261Z,16.50
2022-10-23T21:07:46.485Z,16.40
2022-10-23T21:10:13.230Z,16.40
2022-10-23T21:12:40.033Z,16.40
2022-10-23T21:15:07.631Z,16.40
2022-10-23T21:17:38.573Z,16.50
2022-10-23T21:20:05.958Z,16.50
2022-10-23T21:22:33.059Z,16.50
2022-10-23T21:25:00.580Z,16.50
2022-10-23T21:27:27.698Z,16.50
2022-10-23T21:29:57.036Z,16.50
2022-10-23T21:32:26.472Z,16.50
2022-10-23T21:34:55.019Z,16.50
2022-10-23T21:37:21.730Z,16.40
2022-10-23T21:39:48.456Z,16.40
2022-10-23T21:42:15.512Z,16.40
2022-10-23T21:44:42.361Z,16.40
2022-10-23T21:47:09.194Z,16.40
2022-10-23T21:49:35.947Z,16.40
2022-10-23T21:52:03.388Z,16.40
2022-10-23T21:54:30.195Z,16.40
2022-10-23T21:56:56.971Z,16.40
2022-10-23T21:59:28.810Z,16.50
2022-10-23T22:01:57.296Z,16.40
2022-10-23T22:04:24.198Z,16.40
2022-10-23T22:06:51.051Z,16.40
2022-10-23T22:09:20.108Z,16.40
2022-10-23T22:11:53.291Z,16.40
2022-10-23T22:14:20.757Z,16.40
2022-10-23T22:16:47.861Z,16.40
2022-10-23T22:19:17.094Z,16.40
2022-10-23T22:21:47.751Z,16.40
2022-10-23T22:24:14.491Z,16.30
2022-10-23T22:26:44.225Z,16.30
2022-10-23T22:34:52.789Z,16.20
2022-10-23T22:37:20.559Z,16.20
2022-10-23T22:40:02.546Z,16.20
2022-10-23T22:42:29.777Z,16.20
2022-10-23T22:44:56.514Z,16.20
2022-10-23T22:50:10.419Z,16.20
2022-10-23T22:52:37.149Z,16.20
2022-10-23T22:55:04.992Z,16.10
2022-10-23T22:57:31.701Z,16.10
2022-10-23T22:59:58.464Z,16.10
2022-10-23T23:02:28.069Z,16.10
2022-10-23T23:04:55.109Z,16.10
2022-10-23T23:07:21.828Z,16.20
2022-10-23T23:09:48.519Z,16.10
2022-10-23T23:12:17.970Z,16.10
2022-10-23T23:14:44.701Z,16.10
2022-10-23T23:17:11.921Z,16.10
2022-10-23T23:19:39.340Z,16.10
2022-10-23T23:22:06.542Z,16.10
2022-10-23T23:24:33.617Z,16.20
2022-10-23T23:27:00.322Z,16.20
2022-10-23T23:29:28.278Z,16.30
2022-10-23T23:31:55.041Z,16.30
2022-10-23T23:34:21.767Z,16.20
2022-10-23T23:36:48.471Z,16.20
2022-10-23T23:39:15.220Z,16.20
2022-10-23T23:41:42.120Z,16.20
2022-10-23T23:44:12.502Z,16.20
2022-10-23T23:46:39.292Z,16.20
2022-10-23T23:49:06.038Z,16.20
2022-10-23T23:51:32.965Z,16.20
2022-10-23T23:53:59.761Z,16.10
2022-10-23T23:56:26.530Z,16.10
2022-10-23T23:58:53.332Z,16.10
